createdAt,value
2019-05-26T00:00:27.893Z,15.38
2019-05-26T00:03:00.351Z,15.32
2019-05-26T00:05:33.040Z,15.58
2019-05-26T00:08:05.418Z,14.90
2019-05-26T00:10:37.978Z,15.38
2019-05-26T00:13:10.383Z,17.35
2019-05-26T00:15:43.009Z,16.67
2019-05-26T00:18:15.373Z,15.63
2019-05-26T00:20:47.998Z,15.08
2019-05-26T00:23:20.378Z,16.37
2019-05-26T00:25:52.895Z,14.73
2019-05-26T00:28:25.275Z,14.65
2019-05-26T00:30:59.046Z,15.08
2019-05-26T00:33:32.966Z,16.10
2019-05-26T00:36:05.531Z,16.15
2019-05-26T00:38:37.921Z,15.18
2019-05-26T00:41:10.451Z,15.38
2019-05-26T00:43:42.809Z,17.32
2019-05-26T00:46:15.398Z,14.80
2019-05-26T00:48:48.940Z,16.95
2019-05-26T00:51:21.527Z,17.30
2019-05-26T00:53:54.099Z,18.37
2019-05-26T00:56:26.675Z,19.20
2019-05-26T00:58:59.063Z,16.62
2019-05-26T01:01:31.622Z,16.52
2019-05-26T01:04:04.224Z,18.48
2019-05-26T01:06:36.713Z,18.20
2019-05-26T01:09:09.587Z,19.92
2019-05-26T01:11:42.089Z,20.75
2019-05-26T01:14:14.608Z,19.52
2019-05-26T01:16:47.193Z,23.87
2019-05-26T01:19:20.682Z,21.17
2019-05-26T01:21:53.188Z,17.95
2019-05-26T01:24:25.565Z,22.02
2019-05-26T01:26:58.116Z,21.90
2019-05-26T01:29:31.204Z,19.50
2019-05-26T01:32:03.697Z,21.17
2019-05-26T01:34:36.249Z,19.55
2019-05-26T01:37:08.934Z,20.40
2019-05-26T01:39:41.379Z,19.90
2019-05-26T01:42:13.899Z,22.22
2019-05-26T01:44:46.258Z,20.72
2019-05-26T01:47:18.844Z,20.45
2019-05-26T01:49:51.302Z,20.72
2019-05-26T01:52:25.177Z,18.85
2019-05-26T01:54:57.631Z,22.40
2019-05-26T01:57:30.288Z,19.52
2019-05-26T02:00:02.751Z,19.42
2019-05-26T02:02:35.810Z,20.02
2019-05-26T02:05:08.488Z,22.52
2019-05-26T02:07:41.083Z,19.77
2019-05-26T02:10:13.553Z,21.45
2019-05-26T02:12:46.166Z,22.42
2019-05-26T02:15:20.151Z,21.75
2019-05-26T02:17:52.710Z,22.48
2019-05-26T02:20:25.240Z,21.68
2019-05-26T02:22:57.861Z,20.40
2019-05-26T02:25:30.247Z,21.57
2019-05-26T02:28:02.756Z,22.42
2019-05-26T02:30:35.204Z,18.55
2019-05-26T02:33:07.750Z,22.02
2019-05-26T02:35:40.239Z,20.48
2019-05-26T02:38:12.887Z,20.37
2019-05-26T02:40:45.209Z,22.52
2019-05-26T02:43:17.735Z,19.92
2019-05-26T02:45:50.180Z,21.37
2019-05-26T02:48:22.694Z,21.00
2019-05-26T02:50:55.131Z,19.75
2019-05-26T02:53:27.728Z,16.20
2019-05-26T02:56:01.801Z,18.37
2019-05-26T02:58:34.299Z,15.72
2019-05-26T03:01:06.658Z,15.98
2019-05-26T03:03:39.418Z,14.40
2019-05-26T03:06:14.068Z,14.90
2019-05-26T03:08:48.210Z,15.20
2019-05-26T03:11:20.888Z,14.80
2019-05-26T03:13:56.691Z,14.43
2019-05-26T03:16:31.631Z,15.93
2019-05-26T03:19:05.531Z,15.70
2019-05-26T03:21:38.259Z,18.92
2019-05-26T03:24:12.192Z,15.98
2019-05-26T03:26:44.557Z,16.85
2019-05-26T03:29:17.063Z,15.63
2019-05-26T03:31:49.525Z,16.45
2019-05-26T03:34:22.008Z,14.58
2019-05-26T03:36:54.617Z,17.05
2019-05-26T03:39:43.469Z,15.80
2019-05-26T03:42:03.235Z,13.13
2019-05-26T03:44:35.790Z,16.40
2019-05-26T03:47:08.165Z,13.48
2019-05-26T03:49:40.650Z,14.73
2019-05-26T03:52:13.097Z,15.20
2019-05-26T03:54:45.497Z,15.43
2019-05-26T03:57:17.939Z,16.35
2019-05-26T03:59:50.444Z,15.45
2019-05-26T04:02:22.807Z,17.85
2019-05-26T04:04:55.344Z,17.45
2019-05-26T04:07:27.743Z,17.40
2019-05-26T04:10:05.550Z,19.00
2019-05-26T04:12:34.451Z,19.98
2019-05-26T04:15:08.303Z,18.23
2019-05-26T04:17:40.805Z,17.77
2019-05-26T04:20:13.306Z,20.65
2019-05-26T04:22:45.733Z,17.90
2019-05-26T04:25:18.131Z,20.17
2019-05-26T04:27:50.481Z,20.77
2019-05-26T04:30:24.086Z,19.90
2019-05-26T04:32:56.491Z,20.65
2019-05-26T04:35:28.980Z,20.77
2019-05-26T04:38:01.381Z,20.88
2019-05-26T04:40:33.875Z,23.47
2019-05-26T04:43:06.312Z,24.75
2019-05-26T04:45:38.898Z,26.87
2019-05-26T04:48:11.320Z,25.35
2019-05-26T04:50:43.820Z,25.85
2019-05-26T04:53:16.278Z,23.40
2019-05-26T04:55:48.809Z,26.00
2019-05-26T04:58:21.235Z,28.62
2019-05-26T05:00:53.740Z,24.67
2019-05-26T05:03:27.344Z,24.43
2019-05-26T05:05:59.876Z,24.15
2019-05-26T05:08:32.337Z,28.40
2019-05-26T05:11:04.930Z,25.95
2019-05-26T05:13:37.338Z,29.60
2019-05-26T05:16:09.929Z,26.07
2019-05-26T05:18:42.380Z,27.98
2019-05-26T05:21:14.848Z,29.20
2019-05-26T05:23:47.280Z,31.85
2019-05-26T05:26:19.682Z,28.00
2019-05-26T05:28:53.646Z,26.70
2019-05-26T05:31:26.176Z,25.72
2019-05-26T05:33:58.549Z,25.60
2019-05-26T05:36:31.056Z,25.12
2019-05-26T05:39:03.615Z,24.35
2019-05-26T05:41:36.143Z,28.15
2019-05-26T05:44:08.534Z,26.00
2019-05-26T05:46:41.026Z,30.20
2019-05-26T05:49:13.403Z,29.37
2019-05-26T05:51:45.985Z,31.77
2019-05-26T05:54:19.096Z,39.25
2019-05-26T05:57:03.153Z,43.83
2019-05-26T05:59:43.604Z,63.83
2019-05-26T06:02:16.409Z,74.20
2019-05-26T06:04:50.523Z,77.15
2019-05-26T06:07:23.181Z,77.65
2019-05-26T06:09:55.681Z,82.75
2019-05-26T06:12:33.369Z,68.40
2019-05-26T06:15:10.386Z,46.13
2019-05-26T06:17:42.771Z,41.77
2019-05-26T06:20:16.534Z,42.03
2019-05-26T06:22:49.122Z,37.23
2019-05-26T06:25:21.506Z,38.98
2019-05-26T06:27:55.549Z,35.50
2019-05-26T06:30:28.090Z,34.03
2019-05-26T06:33:01.231Z,33.42
2019-05-26T06:35:34.285Z,36.00
2019-05-26T06:38:07.096Z,36.10
2019-05-26T06:40:44.240Z,31.70
2019-05-26T06:43:17.067Z,37.40
2019-05-26T06:45:49.529Z,28.60
2019-05-26T06:48:22.016Z,24.30
2019-05-26T06:50:55.891Z,23.07
2019-05-26T06:53:28.488Z,23.62
2019-05-26T06:56:02.097Z,26.17
2019-05-26T06:58:34.744Z,23.67
2019-05-26T07:01:07.294Z,26.85
2019-05-26T07:03:39.872Z,26.65
2019-05-26T07:06:12.225Z,36.60
2019-05-26T07:08:44.777Z,34.23
2019-05-26T07:11:17.231Z,36.55
2019-05-26T07:13:49.660Z,32.48
2019-05-26T07:16:36.811Z,35.48
2019-05-26T07:18:57.887Z,45.12
2019-05-26T07:21:30.256Z,44.83
2019-05-26T07:24:02.761Z,47.05
2019-05-26T07:26:35.151Z,44.35
2019-05-26T07:29:08.225Z,41.85
2019-05-26T07:31:40.594Z,38.73
2019-05-26T07:34:14.450Z,36.08
2019-05-26T07:36:47.287Z,36.60
2019-05-26T07:39:20.866Z,32.30
2019-05-26T07:42:08.654Z,34.53
2019-05-26T07:47:00.185Z,27.58
2019-05-26T07:49:32.700Z,27.62
2019-05-26T07:52:05.297Z,25.27
2019-05-26T07:54:37.853Z,24.75
2019-05-26T07:57:11.652Z,24.52
2019-05-26T07:59:44.347Z,25.60
2019-05-26T08:02:16.799Z,30.40
2019-05-26T08:04:52.258Z,33.83
2019-05-26T08:07:28.487Z,26.97
2019-05-26T08:10:06.258Z,22.95
2019-05-26T08:12:39.966Z,25.55
2019-05-26T08:15:12.547Z,26.20
2019-05-26T08:17:45.038Z,19.82
2019-05-26T08:20:17.536Z,28.07
2019-05-26T08:22:50.020Z,28.17
2019-05-26T08:25:27.594Z,28.55
2019-05-26T08:27:59.972Z,20.60
2019-05-26T08:30:32.723Z,22.02
2019-05-26T08:33:05.183Z,20.12
2019-05-26T08:35:37.770Z,20.48
2019-05-26T08:38:10.136Z,19.10
2019-05-26T08:40:43.675Z,25.85
2019-05-26T08:43:16.782Z,27.77
2019-05-26T08:45:51.998Z,34.35
2019-05-26T08:48:26.060Z,29.45
2019-05-26T08:50:58.585Z,18.52
2019-05-26T08:53:31.072Z,20.37
2019-05-26T08:56:03.584Z,21.80
2019-05-26T08:58:35.976Z,15.85
2019-05-26T09:01:08.461Z,12.07
2019-05-26T09:03:43.630Z,16.40
2019-05-26T09:08:52.457Z,13.18
2019-05-26T09:11:28.667Z,12.23
2019-05-26T09:14:01.147Z,14.60
2019-05-26T09:16:34.454Z,10.95
2019-05-26T09:19:08.941Z,11.05
2019-05-26T09:21:43.953Z,13.60
2019-05-26T09:24:16.197Z,12.25
2019-05-26T09:26:48.741Z,10.82
2019-05-26T09:29:23.308Z,12.18
2019-05-26T09:31:55.742Z,12.50
2019-05-26T09:34:28.251Z,10.55
2019-05-26T09:37:00.681Z,10.70
2019-05-26T09:39:32.944Z,17.17
2019-05-26T09:42:05.620Z,20.20
2019-05-26T09:44:39.710Z,19.15
2019-05-26T09:47:14.130Z,18.15
2019-05-26T09:49:47.519Z,26.07
2019-05-26T09:52:20.096Z,22.35
2019-05-26T09:54:53.466Z,22.62
2019-05-26T09:57:25.973Z,25.48
2019-05-26T10:00:00.609Z,27.27
2019-05-26T10:02:33.256Z,10.65
2019-05-26T10:05:08.108Z,8.78
2019-05-26T10:07:43.746Z,9.45
2019-05-26T10:10:17.898Z,8.13
2019-05-26T10:12:50.322Z,8.13
2019-05-26T10:15:22.602Z,10.05
2019-05-26T10:17:54.981Z,16.65
2019-05-26T10:20:29.238Z,20.43
2019-05-26T10:23:01.926Z,23.87
2019-05-26T10:25:36.032Z,19.15
2019-05-26T10:28:08.527Z,14.63
2019-05-26T10:30:40.909Z,12.13
2019-05-26T10:33:13.767Z,12.93
2019-05-26T10:35:46.154Z,14.33
2019-05-26T10:38:18.708Z,11.15
2019-05-26T10:40:51.145Z,23.47
2019-05-26T10:43:23.750Z,18.50
2019-05-26T10:45:56.294Z,10.70
2019-05-26T10:48:28.625Z,10.10
2019-05-26T10:51:00.879Z,8.25
2019-05-26T10:53:33.165Z,8.45
2019-05-26T10:56:05.383Z,12.60
2019-05-26T10:58:37.896Z,13.35
2019-05-26T11:01:10.342Z,17.23
2019-05-26T11:03:42.834Z,19.27
2019-05-26T11:06:15.257Z,17.30
2019-05-26T11:08:47.764Z,18.40
2019-05-26T11:11:20.531Z,13.72
2019-05-26T11:14:02.566Z,12.20
2019-05-26T11:16:27.345Z,15.23
2019-05-26T11:19:02.833Z,14.83
2019-05-26T11:21:35.531Z,15.10
2019-05-26T11:24:08.078Z,12.65
2019-05-26T11:26:40.444Z,11.33
2019-05-26T11:29:13.023Z,7.35
2019-05-26T11:31:45.188Z,9.93
2019-05-26T11:34:17.846Z,10.40
2019-05-26T11:36:52.551Z,9.33
2019-05-26T11:39:27.162Z,10.13
2019-05-26T11:42:12.317Z,12.25
2019-05-26T11:44:33.138Z,10.13
2019-05-26T11:47:05.517Z,12.00
2019-05-26T11:49:37.823Z,10.60
2019-05-26T11:52:09.996Z,12.60
2019-05-26T11:54:43.020Z,13.60
2019-05-26T11:57:15.486Z,16.60
2019-05-26T11:59:49.112Z,15.40
2019-05-26T12:02:22.734Z,15.43
2019-05-26T12:04:56.677Z,16.65
2019-05-26T12:07:29.156Z,17.60
2019-05-26T12:10:02.587Z,16.97
2019-05-26T12:12:35.503Z,14.03
2019-05-26T12:15:11.757Z,13.15
2019-05-26T12:17:48.094Z,14.03
2019-05-26T12:20:20.617Z,13.65
2019-05-26T12:22:53.067Z,17.90
2019-05-26T12:25:25.652Z,17.25
2019-05-26T12:27:58.022Z,20.57
2019-05-26T12:30:31.072Z,21.15
2019-05-26T12:33:03.809Z,21.35
2019-05-26T12:35:41.244Z,21.12
2019-05-26T12:38:15.471Z,16.02
2019-05-26T12:40:49.060Z,11.68
2019-05-26T12:43:21.465Z,13.48
2019-05-26T12:45:54.059Z,19.77
2019-05-26T12:48:27.611Z,22.42
2019-05-26T12:51:01.163Z,22.45
2019-05-26T12:53:35.388Z,22.73
2019-05-26T12:56:08.118Z,29.05
2019-05-26T12:58:41.176Z,23.57
2019-05-26T13:01:13.678Z,14.85
2019-05-26T13:03:46.125Z,13.03
2019-05-26T13:06:18.639Z,17.67
2019-05-26T13:08:53.250Z,10.25
2019-05-26T13:11:26.065Z,8.90
2019-05-26T13:13:58.426Z,9.95
2019-05-26T13:16:30.864Z,10.60
2019-05-26T13:19:04.882Z,10.88
2019-05-26T13:21:40.233Z,9.75
2019-05-26T13:24:18.514Z,11.93
2019-05-26T13:26:49.710Z,10.70
2019-05-26T13:29:25.517Z,9.98
2019-05-26T13:34:29.555Z,12.03
2019-05-26T13:37:03.081Z,17.77
2019-05-26T13:39:35.485Z,9.48
2019-05-26T13:42:10.708Z,11.90
2019-05-26T13:44:43.184Z,17.10
2019-05-26T13:47:25.666Z,16.23
2019-05-26T13:49:54.405Z,20.83
2019-05-26T13:52:31.542Z,23.83
2019-05-26T13:55:07.504Z,16.17
2019-05-26T13:57:41.629Z,14.90
2019-05-26T14:00:17.509Z,16.48
2019-05-26T14:02:51.625Z,16.67
2019-05-26T14:05:25.914Z,17.00
2019-05-26T14:07:58.424Z,18.73
2019-05-26T14:10:33.515Z,5.50
2019-05-26T14:13:07.086Z,6.75
2019-05-26T14:15:40.577Z,4.33
2019-05-26T14:18:12.954Z,4.55
2019-05-26T14:20:45.277Z,4.53
2019-05-26T14:23:17.598Z,4.97
2019-05-26T14:25:49.826Z,3.95
2019-05-26T14:28:25.598Z,6.33
2019-05-26T14:31:00.850Z,6.33
2019-05-26T14:33:33.450Z,6.72
2019-05-26T14:36:09.731Z,8.23
2019-05-26T14:38:43.869Z,16.17
2019-05-26T14:41:16.225Z,13.98
2019-05-26T14:43:50.156Z,13.38
2019-05-26T14:46:22.381Z,12.20
2019-05-26T14:48:54.609Z,9.13
2019-05-26T14:51:28.030Z,9.38
2019-05-26T14:54:00.307Z,10.00
2019-05-26T14:56:32.472Z,9.40
2019-05-26T14:59:04.873Z,10.82
2019-05-26T15:01:39.536Z,10.08
2019-05-26T15:04:12.162Z,9.55
2019-05-26T15:06:44.407Z,10.93
2019-05-26T15:09:25.228Z,9.18
2019-05-26T15:11:50.643Z,9.40
2019-05-26T15:14:22.947Z,9.95
2019-05-26T15:16:55.118Z,9.48
2019-05-26T15:19:27.518Z,9.90
2019-05-26T15:21:59.884Z,9.73
2019-05-26T15:24:33.809Z,10.90
2019-05-26T15:27:06.127Z,10.08
2019-05-26T15:29:38.410Z,10.80
2019-05-26T15:32:11.692Z,10.03
2019-05-26T15:34:45.595Z,10.88
2019-05-26T15:37:17.806Z,11.03
2019-05-26T15:39:50.251Z,9.03
2019-05-26T15:42:22.489Z,8.90
2019-05-26T15:44:54.761Z,9.18
2019-05-26T15:47:28.366Z,9.58
2019-05-26T15:50:00.661Z,9.35
2019-05-26T15:52:33.309Z,8.80
2019-05-26T15:55:08.024Z,9.33
2019-05-26T16:00:12.826Z,11.20
2019-05-26T16:02:45.124Z,10.32
2019-05-26T16:05:17.426Z,9.50
2019-05-26T16:07:49.651Z,9.38
2019-05-26T16:10:21.972Z,9.53
2019-05-26T16:12:54.244Z,16.95
2019-05-26T16:15:27.705Z,10.45
2019-05-26T16:18:03.945Z,10.75
2019-05-26T16:20:37.474Z,9.98
2019-05-26T16:23:09.719Z,9.33
2019-05-26T16:25:42.582Z,13.78
2019-05-26T16:28:14.862Z,11.80
2019-05-26T16:30:47.243Z,10.35
2019-05-26T16:33:19.424Z,10.72
2019-05-26T16:35:55.467Z,9.95
2019-05-26T16:38:28.583Z,11.00
2019-05-26T16:41:00.996Z,10.43
2019-05-26T16:43:34.777Z,10.32
2019-05-26T16:46:07.138Z,10.80
2019-05-26T16:48:41.036Z,11.20
2019-05-26T16:51:14.872Z,10.93
2019-05-26T16:53:47.208Z,9.90
2019-05-26T16:56:21.207Z,10.90
2019-05-26T16:58:54.981Z,10.08
2019-05-26T17:01:27.385Z,11.20
2019-05-26T17:04:01.208Z,10.58
2019-05-26T17:09:09.168Z,10.30
2019-05-26T17:11:41.591Z,10.32
2019-05-26T17:14:14.037Z,11.40
2019-05-26T17:16:46.358Z,11.03
2019-05-26T17:19:18.743Z,11.00
2019-05-26T17:21:51.374Z,14.10
2019-05-26T17:24:24.781Z,10.30
2019-05-26T17:26:58.751Z,10.58
2019-05-26T17:29:31.143Z,11.08
2019-05-26T17:32:05.120Z,11.75
2019-05-26T17:34:37.921Z,13.43
2019-05-26T17:37:11.091Z,11.80
2019-05-26T17:39:43.560Z,13.15
2019-05-26T17:42:16.071Z,11.80
2019-05-26T17:44:48.508Z,12.82
2019-05-26T17:47:30.186Z,13.28
2019-05-26T17:49:57.339Z,13.88
2019-05-26T17:52:32.556Z,16.52
2019-05-26T17:55:08.214Z,23.87
2019-05-26T17:57:41.139Z,24.90
2019-05-26T18:00:14.595Z,32.90
2019-05-26T18:02:47.320Z,41.00
2019-05-26T18:05:19.775Z,44.33
2019-05-26T18:07:52.286Z,45.08
2019-05-26T18:10:24.761Z,45.23
2019-05-26T18:12:57.324Z,44.58
2019-05-26T18:15:29.801Z,41.88
2019-05-26T18:18:02.392Z,37.58
2019-05-26T18:20:34.847Z,36.17
2019-05-26T18:23:09.781Z,33.65
2019-05-26T18:25:43.987Z,30.43
2019-05-26T18:28:16.852Z,31.52
2019-05-26T18:30:50.748Z,31.60
2019-05-26T18:33:23.297Z,32.20
2019-05-26T18:35:55.683Z,28.23
2019-05-26T18:38:28.192Z,29.90
2019-05-26T18:41:03.661Z,26.73
2019-05-26T18:43:36.166Z,29.42
2019-05-26T18:46:08.671Z,31.23
2019-05-26T18:48:43.350Z,28.35
2019-05-26T18:51:16.235Z,29.65
2019-05-26T18:53:52.948Z,32.67
2019-05-26T18:56:26.567Z,27.22
2019-05-26T18:58:59.079Z,27.45
2019-05-26T19:01:31.542Z,26.05
2019-05-26T19:04:04.168Z,22.67
2019-05-26T19:06:37.580Z,23.47
2019-05-26T19:09:10.489Z,22.90
2019-05-26T19:11:42.935Z,27.70
2019-05-26T19:14:16.659Z,31.15
2019-05-26T19:16:50.151Z,27.82
2019-05-26T19:19:23.044Z,29.23
2019-05-26T19:21:55.607Z,23.40
2019-05-26T19:24:28.257Z,22.37
2019-05-26T19:27:01.394Z,18.00
2019-05-26T19:29:34.128Z,15.48
2019-05-26T19:32:06.580Z,19.45
2019-05-26T19:34:39.214Z,15.13
2019-05-26T19:37:11.693Z,15.13
2019-05-26T19:39:45.322Z,17.17
2019-05-26T19:42:20.330Z,16.75
2019-05-26T19:44:52.919Z,15.60
2019-05-26T19:47:29.595Z,17.23
2019-05-26T19:50:02.064Z,18.50
2019-05-26T19:52:36.895Z,19.17
2019-05-26T19:55:12.176Z,18.67
2019-05-26T19:57:44.834Z,16.57
2019-05-26T20:00:19.207Z,15.88
2019-05-26T20:02:53.524Z,17.23
2019-05-26T20:05:27.198Z,19.15
2019-05-26T20:07:59.809Z,18.90
2019-05-26T20:10:33.218Z,20.23
2019-05-26T20:13:05.934Z,18.45
2019-05-26T20:15:40.053Z,16.48
2019-05-26T20:18:12.671Z,16.75
2019-05-26T20:20:46.712Z,18.30
2019-05-26T20:23:19.288Z,17.90
2019-05-26T20:25:53.665Z,19.37
2019-05-26T20:28:26.754Z,19.65
2019-05-26T20:30:59.262Z,17.92
2019-05-26T20:33:31.783Z,18.70
2019-05-26T20:36:04.433Z,19.87
2019-05-26T20:38:37.065Z,18.62
2019-05-26T20:41:09.525Z,21.15
2019-05-26T20:43:42.188Z,19.37
2019-05-26T20:46:14.722Z,21.85
2019-05-26T20:48:47.263Z,20.30
2019-05-26T20:51:23.640Z,20.15
2019-05-26T20:53:56.232Z,18.95
2019-05-26T20:56:28.691Z,19.23
2019-05-26T20:59:01.276Z,19.75
2019-05-26T21:01:33.662Z,20.85
2019-05-26T21:04:06.224Z,20.23
2019-05-26T21:06:38.594Z,20.75
2019-05-26T21:09:11.673Z,24.60
2019-05-26T21:11:44.401Z,18.40
2019-05-26T21:14:16.987Z,16.32
2019-05-26T21:16:49.377Z,15.80
2019-05-26T21:19:21.902Z,16.32
2019-05-26T21:21:54.368Z,14.35
2019-05-26T21:24:26.970Z,14.58
2019-05-26T21:26:59.422Z,15.95
2019-05-26T21:29:31.966Z,14.58
2019-05-26T21:32:04.353Z,14.28
2019-05-26T21:34:36.858Z,13.22
2019-05-26T21:37:09.261Z,14.03
2019-05-26T21:39:41.782Z,14.63
2019-05-26T21:42:16.109Z,13.48
2019-05-26T21:44:48.365Z,12.53
2019-05-26T21:47:21.963Z,12.37
2019-05-26T21:49:54.567Z,13.08
2019-05-26T21:52:27.027Z,13.85
2019-05-26T21:54:59.577Z,14.23
2019-05-26T21:57:31.967Z,13.62
2019-05-26T22:00:13.917Z,13.55
2019-05-26T22:02:47.663Z,14.53
2019-05-26T22:05:20.242Z,14.07
2019-05-26T22:07:53.618Z,14.53
2019-05-26T22:10:27.557Z,16.25
2019-05-26T22:13:00.006Z,15.40
2019-05-26T22:15:32.566Z,15.13
2019-05-26T22:18:04.982Z,15.78
2019-05-26T22:20:37.550Z,14.85
2019-05-26T22:23:10.025Z,16.23
2019-05-26T22:25:42.601Z,14.58
2019-05-26T22:28:15.041Z,16.40
2019-05-26T22:30:47.617Z,14.47
2019-05-26T22:33:20.048Z,14.58
2019-05-26T22:35:52.682Z,14.43
2019-05-26T22:38:25.059Z,14.40
2019-05-26T22:40:57.665Z,14.93
2019-05-26T22:43:30.151Z,13.80
2019-05-26T22:46:02.680Z,14.03
2019-05-26T22:48:35.123Z,16.02
2019-05-26T22:51:07.810Z,14.87
2019-05-26T22:53:40.206Z,13.88
2019-05-26T22:56:12.720Z,13.83
2019-05-26T22:58:45.162Z,14.58
2019-05-26T23:01:17.820Z,14.55
2019-05-26T23:03:50.191Z,15.08
2019-05-26T23:06:22.883Z,15.18
2019-05-26T23:08:55.349Z,14.55
2019-05-26T23:11:28.095Z,14.40
2019-05-26T23:14:00.572Z,14.95
2019-05-26T23:16:33.164Z,17.82
2019-05-26T23:19:18.250Z,17.02
2019-05-26T23:21:39.884Z,15.43
2019-05-26T23:24:13.564Z,15.90
2019-05-26T23:26:46.183Z,16.87
2019-05-26T23:29:18.609Z,15.13
2019-05-26T23:31:51.231Z,15.45
2019-05-26T23:34:24.730Z,15.72
2019-05-26T23:36:57.249Z,17.23
2019-05-26T23:39:29.727Z,18.92
2019-05-26T23:42:02.227Z,18.25
2019-05-26T23:44:34.654Z,17.40
2019-05-26T23:47:07.400Z,17.80
2019-05-26T23:49:39.795Z,20.65
2019-05-26T23:52:12.475Z,18.82
2019-05-26T23:54:44.874Z,20.27
2019-05-26T23:57:17.383Z,19.17
2019-05-26T23:59:49.752Z,19.02
